Aeroporto :
LOGIN :

Iscrizione | Disclaimer

   EN    FR    IT 

 










Sommario :    VFR   VFR Marginale   IFR   IFR Intensivo   IFR Molto Intensivo
Visibilità : 
Base nubi : 
>= 8 km
>= 3000ft
5 / 8 km
1000 / 3000 ft
1500m / 5 km
500 / 1000 ft
800 / 1500m
200 / 500 ft
< 800m
< 200 ft
Simboli :   Temporali  Nebbia  Neve Forte  Precipitazioni Forti  Vento > 20 kt
SIGMETs :   Varie  Temporali  Ghiacco  Turbolenza  Onda orograficha  Ceneri Vulcaniche






- Altitudine del aeroporto : 194 ft


EBCV - Chièvres

ULTIMO METAR :
  • 231855Z AUTO 19011KT 9999 -RA OVC037/// 05/03 Q0992 BLU

METARs OBSOLETI :
  • 231825Z AUTO 23009KT 9999 -RA OVC037/// 05/03 Q0992 BLU
  • 231818Z AUTO 23013KT 9999 -RA OVC000/// 05/03 Q0992 RED
  • 231752Z AUTO 20012KT 9999 OVC055/// 06/03 Q0992 BLU
  • 231738Z AUTO 21013G31KT 2300 +RA FEW028/// SCT046/// BKN080/// 05/03 Q0992 YLO
  • 231655Z AUTO 19010KT 9999 FEW050/// BKN100/// BKN130/// 07/03 Q0991 BLU
  • 231625Z AUTO 20012KT 9999 FEW031/// SCT050/// BKN110/// 08/03 Q0991 BLU
  • 231555Z AUTO 21012KT 9999 FEW029/// SCT055/// BKN110/// 09/03 Q0991 BLU
  • 231525Z AUTO 21016KT 9999 FEW028/// SCT038/// BKN120/// 08/03 Q0991 BLU
  • 231455Z AUTO 21016KT 9999 FEW025/// SCT030/// BKN050/// 09/04 Q0991 BLU
  • 231425Z AUTO 21015KT 9999 FEW024/// SCT028/// BKN034/// 08/04 Q0991 BLU

TAF TAF EBCV
Valido dal 23 a 19 ore il 24 a 07 ore UTC


231541Z 2319/2407 19010KT 9999 FEW015 SCT025
TEMPO 2319/2407 FEW012 SCT020
TEMPO 2319/2401 5000 -SHRA SCT016TCU
PROB40
TEMPO 2319/2320 3000 SHRA SCT014TCU
BECMG 2405/2407 22015G25KT BY EBWM



MetMap, La meteo Aeronautica in un colpo d'occhio ! - Copyright ORBIFLY Dicembre 2007 - Disclaimer

ORBIFLY MET'MAP TEAM :

Programmazione e sviluppo : Alexandra Zaïnal
Concezione : Baudouin d'Aumeries
Supporto tecnico e logistico : Manuel Goepfert
Aiuto : Marc-Olivier Méhu
Aiuto per la traduzione : Arnaldo La Scala




FONTI E CREDITI :

   NOAA